sensor_id;sensor_type;location;lat;lon;timestamp;temperature;humidity
42615;DHT22;28754;47.700;7.924;2022-12-31T00:02:35;9.80;99.90
42615;DHT22;28754;47.700;7.924;2022-12-31T00:05:22;9.80;99.90
42615;DHT22;28754;47.700;7.924;2022-12-31T00:08:09;9.90;99.90
42615;DHT22;28754;47.700;7.924;2022-12-31T00:10:56;9.90;99.90
42615;DHT22;28754;47.700;7.924;2022-12-31T00:13:43;9.90;99.90
42615;DHT22;28754;47.700;7.924;2022-12-31T00:16:37;10.00;99.90
42615;DHT22;28754;47.700;7.924;2022-12-31T00:19:25;10.00;99.90
42615;DHT22;28754;47.700;7.924;2022-12-31T00:22:12;10.00;99.90
42615;DHT22;28754;47.700;7.924;2022-12-31T00:24:59;10.00;99.90
42615;DHT22;28754;47.700;7.924;2022-12-31T00:27:46;10.00;99.90
42615;DHT22;28754;47.700;7.924;2022-12-31T00:30:33;10.10;99.90
42615;DHT22;28754;47.700;7.924;2022-12-31T00:33:22;10.10;99.90
42615;DHT22;28754;47.700;7.924;2022-12-31T00:36:34;10.10;99.90
42615;DHT22;28754;47.700;7.924;2022-12-31T00:39:23;10.10;99.90
42615;DHT22;28754;47.700;7.924;2022-12-31T00:42:10;10.10;99.90
42615;DHT22;28754;47.700;7.924;2022-12-31T00:44:57;10.20;99.90
42615;DHT22;28754;47.700;7.924;2022-12-31T00:47:44;10.20;99.90
42615;DHT22;28754;47.700;7.924;2022-12-31T00:50:31;10.20;99.90
42615;DHT22;28754;47.700;7.924;2022-12-31T00:53:17;10.20;99.90
42615;DHT22;28754;47.700;7.924;2022-12-31T00:56:10;10.20;99.90
42615;DHT22;28754;47.700;7.924;2022-12-31T00:58:59;10.20;99.90
42615;DHT22;28754;47.700;7.924;2022-12-31T01:01:46;10.20;99.90
42615;DHT22;28754;47.700;7.924;2022-12-31T01:04:35;10.20;99.90
42615;DHT22;28754;47.700;7.924;2022-12-31T01:07:22;10.30;99.90
42615;DHT22;28754;47.700;7.924;2022-12-31T01:10:09;10.30;99.90
42615;DHT22;28754;47.700;7.924;2022-12-31T01:13:30;10.30;99.90
42615;DHT22;28754;47.700;7.924;2022-12-31T01:16:53;10.30;99.90
42615;DHT22;28754;47.700;7.924;2022-12-31T01:19:42;10.30;99.90
42615;DHT22;28754;47.700;7.924;2022-12-31T01:22:29;10.30;99.90
42615;DHT22;28754;47.700;7.924;2022-12-31T01:25:16;10.40;99.90
42615;DHT22;28754;47.700;7.924;2022-12-31T01:28:05;10.30;99.90
42615;DHT22;28754;47.700;7.924;2022-12-31T01:30:52;10.40;99.90
42615;DHT22;28754;47.700;7.924;2022-12-31T01:33:40;10.40;99.90
42615;DHT22;28754;47.700;7.924;2022-12-31T01:36:30;10.40;99.90
42615;DHT22;28754;47.700;7.924;2022-12-31T01:39:18;10.40;99.90
42615;DHT22;28754;47.700;7.924;2022-12-31T01:42:11;10.40;99.90
42615;DHT22;28754;47.700;7.924;2022-12-31T01:44:59;10.50;99.90
42615;DHT22;28754;47.700;7.924;2022-12-31T01:47:50;10.50;99.90
42615;DHT22;28754;47.700;7.924;2022-12-31T01:50:41;10.50;99.90
42615;DHT22;28754;47.700;7.924;2022-12-31T01:53:29;10.40;99.90
42615;DHT22;28754;47.700;7.924;2022-12-31T01:56:18;10.40;99.90
42615;DHT22;28754;47.700;7.924;2022-12-31T01:59:09;10.50;99.90
42615;DHT22;28754;47.700;7.924;2022-12-31T02:02:00;10.40;99.90
42615;DHT22;28754;47.700;7.924;2022-12-31T02:04:50;10.50;99.90
42615;DHT22;28754;47.700;7.924;2022-12-31T02:07:43;10.40;99.90
42615;DHT22;28754;47.700;7.924;2022-12-31T02:10:34;10.40;99.90
42615;DHT22;28754;47.700;7.924;2022-12-31T02:13:21;10.40;99.90
42615;DHT22;28754;47.700;7.924;2022-12-31T02:23:06;10.40;99.90
42615;DHT22;28754;47.700;7.924;2022-12-31T02:26:24;10.50;99.90
42615;DHT22;28754;47.700;7.924;2022-12-31T02:38:42;10.60;99.90
42615;DHT22;28754;47.700;7.924;2022-12-31T02:41:32;10.60;99.90
42615;DHT22;28754;47.700;7.924;2022-12-31T02:44:39;10.60;99.90
42615;DHT22;28754;47.700;7.924;2022-12-31T02:57:24;10.80;99.90
42615;DHT22;28754;47.700;7.924;2022-12-31T03:00:16;10.90;99.90
42615;DHT22;28754;47.700;7.924;2022-12-31T03:03:28;10.80;99.90
42615;DHT22;28754;47.700;7.924;2022-12-31T03:06:20;10.80;99.90
42615;DHT22;28754;47.700;7.924;2022-12-31T03:09:07;10.90;99.90
42615;DHT22;28754;47.700;7.924;2022-12-31T03:12:01;10.90;99.90
42615;DHT22;28754;47.700;7.924;2022-12-31T03:15:09;11.00;99.90
42615;DHT22;28754;47.700;7.924;2022-12-31T03:18:09;11.00;99.90
42615;DHT22;28754;47.700;7.924;2022-12-31T03:20:57;11.00;99.90
42615;DHT22;28754;47.700;7.924;2022-12-31T03:24:02;11.00;99.90
42615;DHT22;28754;47.700;7.924;2022-12-31T03:27:08;11.00;99.90
42615;DHT22;28754;47.700;7.924;2022-12-31T03:29:54;11.00;99.90
42615;DHT22;28754;47.700;7.924;2022-12-31T03:32:43;10.90;99.90
42615;DHT22;28754;47.700;7.924;2022-12-31T03:35:32;10.90;99.90
42615;DHT22;28754;47.700;7.924;2022-12-31T03:38:20;11.00;99.90
42615;DHT22;28754;47.700;7.924;2022-12-31T03:41:09;10.90;99.90
42615;DHT22;28754;47.700;7.924;2022-12-31T03:43:56;10.90;99.90
42615;DHT22;28754;47.700;7.924;2022-12-31T03:46:43;10.90;99.90
42615;DHT22;28754;47.700;7.924;2022-12-31T03:49:29;10.90;99.90
42615;DHT22;28754;47.700;7.924;2022-12-31T03:52:16;10.90;99.90
42615;DHT22;28754;47.700;7.924;2022-12-31T03:55:04;10.90;99.90
42615;DHT22;28754;47.700;7.924;2022-12-31T03:57:51;11.00;99.90
42615;DHT22;28754;47.700;7.924;2022-12-31T04:00:38;11.00;99.90
42615;DHT22;28754;47.700;7.924;2022-12-31T04:03:25;10.90;99.90
42615;DHT22;28754;47.700;7.924;2022-12-31T04:06:13;11.00;99.90
42615;DHT22;28754;47.700;7.924;2022-12-31T04:09:00;10.90;99.90
42615;DHT22;28754;47.700;7.924;2022-12-31T04:11:46;10.90;99.90
42615;DHT22;28754;47.700;7.924;2022-12-31T04:14:33;10.90;99.90
42615;DHT22;28754;47.700;7.924;2022-12-31T04:17:20;10.90;99.90
42615;DHT22;28754;47.700;7.924;2022-12-31T04:20:07;10.90;99.90
42615;DHT22;28754;47.700;7.924;2022-12-31T04:22:54;10.90;99.90
42615;DHT22;28754;47.700;7.924;2022-12-31T04:25:41;11.00;99.90
42615;DHT22;28754;47.700;7.924;2022-12-31T04:28:30;10.90;99.90
42615;DHT22;28754;47.700;7.924;2022-12-31T04:31:17;11.00;99.90
42615;DHT22;28754;47.700;7.924;2022-12-31T04:34:04;10.90;99.90
42615;DHT22;28754;47.700;7.924;2022-12-31T04:36:51;10.90;99.90
42615;DHT22;28754;47.700;7.924;2022-12-31T04:39:38;11.00;99.90
42615;DHT22;28754;47.700;7.924;2022-12-31T04:42:26;11.00;99.90
42615;DHT22;28754;47.700;7.924;2022-12-31T04:45:13;11.00;99.90
42615;DHT22;28754;47.700;7.924;2022-12-31T04:47:59;11.00;99.90
42615;DHT22;28754;47.700;7.924;2022-12-31T04:50:46;11.00;99.90
42615;DHT22;28754;47.700;7.924;2022-12-31T04:53:33;11.00;99.90
42615;DHT22;28754;47.700;7.924;2022-12-31T04:56:20;11.00;99.90
42615;DHT22;28754;47.700;7.924;2022-12-31T04:59:08;11.00;99.90
42615;DHT22;28754;47.700;7.924;2022-12-31T05:01:55;11.00;99.90
42615;DHT22;28754;47.700;7.924;2022-12-31T05:04:53;11.10;99.90
42615;DHT22;28754;47.700;7.924;2022-12-31T05:07:40;11.00;99.90
42615;DHT22;28754;47.700;7.924;2022-12-31T05:10:26;11.00;99.90
42615;DHT22;28754;47.700;7.924;2022-12-31T05:13:14;11.00;99.90
42615;DHT22;28754;47.700;7.924;2022-12-31T05:16:02;11.00;99.90
42615;DHT22;28754;47.700;7.924;2022-12-31T05:18:49;11.10;99.90
42615;DHT22;28754;47.700;7.924;2022-12-31T05:21:36;11.20;99.90
42615;DHT22;28754;47.700;7.924;2022-12-31T05:24:23;11.30;99.90
42615;DHT22;28754;47.700;7.924;2022-12-31T05:27:10;11.20;99.90
42615;DHT22;28754;47.700;7.924;2022-12-31T05:29:57;11.20;99.90
42615;DHT22;28754;47.700;7.924;2022-12-31T05:32:45;11.20;99.90
42615;DHT22;28754;47.700;7.924;2022-12-31T05:35:31;11.30;99.90
42615;DHT22;28754;47.700;7.924;2022-12-31T05:38:18;11.30;99.90
42615;DHT22;28754;47.700;7.924;2022-12-31T05:41:06;11.30;99.90
42615;DHT22;28754;47.700;7.924;2022-12-31T05:43:53;11.30;99.90
42615;DHT22;28754;47.700;7.924;2022-12-31T05:46:39;11.30;99.90
42615;DHT22;28754;47.700;7.924;2022-12-31T05:49:26;11.30;99.90
42615;DHT22;28754;47.700;7.924;2022-12-31T05:52:13;11.30;99.90
42615;DHT22;28754;47.700;7.924;2022-12-31T05:55:00;11.20;99.90
42615;DHT22;28754;47.700;7.924;2022-12-31T05:57:47;11.20;99.90
42615;DHT22;28754;47.700;7.924;2022-12-31T06:00:34;11.20;99.90
42615;DHT22;28754;47.700;7.924;2022-12-31T06:03:20;11.20;99.90
42615;DHT22;28754;47.700;7.924;2022-12-31T06:06:07;11.20;99.90
42615;DHT22;28754;47.700;7.924;2022-12-31T06:08:54;11.30;99.90
42615;DHT22;28754;47.700;7.924;2022-12-31T06:11:41;11.40;99.90
42615;DHT22;28754;47.700;7.924;2022-12-31T06:14:28;11.40;99.90
42615;DHT22;28754;47.700;7.924;2022-12-31T06:17:14;11.40;99.90
42615;DHT22;28754;47.700;7.924;2022-12-31T06:20:01;11.40;99.90
42615;DHT22;28754;47.700;7.924;2022-12-31T06:22:48;11.30;99.90
42615;DHT22;28754;47.700;7.924;2022-12-31T06:25:35;11.30;99.90
42615;DHT22;28754;47.700;7.924;2022-12-31T06:28:22;11.30;99.90
42615;DHT22;28754;47.700;7.924;2022-12-31T06:31:11;11.40;99.90
42615;DHT22;28754;47.700;7.924;2022-12-31T06:34:00;11.40;99.90
42615;DHT22;28754;47.700;7.924;2022-12-31T06:36:46;11.40;99.90
42615;DHT22;28754;47.700;7.924;2022-12-31T06:39:33;11.30;99.90
42615;DHT22;28754;47.700;7.924;2022-12-31T06:42:20;11.30;99.90
42615;DHT22;28754;47.700;7.924;2022-12-31T06:45:07;11.20;99.90
42615;DHT22;28754;47.700;7.924;2022-12-31T06:47:54;11.20;99.90
42615;DHT22;28754;47.700;7.924;2022-12-31T06:50:40;11.10;99.90
42615;DHT22;28754;47.700;7.924;2022-12-31T06:53:27;11.10;99.90
42615;DHT22;28754;47.700;7.924;2022-12-31T06:56:20;11.00;99.90
42615;DHT22;28754;47.700;7.924;2022-12-31T06:59:26;11.00;99.90
42615;DHT22;28754;47.700;7.924;2022-12-31T07:09:36;10.90;99.90
42615;DHT22;28754;47.700;7.924;2022-12-31T07:19:13;11.00;99.90
42615;DHT22;28754;47.700;7.924;2022-12-31T07:22:12;10.80;99.90
42615;DHT22;28754;47.700;7.924;2022-12-31T07:25:02;10.70;99.90
42615;DHT22;28754;47.700;7.924;2022-12-31T07:31:06;10.70;99.90
42615;DHT22;28754;47.700;7.924;2022-12-31T07:34:18;10.70;99.90
42615;DHT22;28754;47.700;7.924;2022-12-31T07:41:10;10.90;99.90
42615;DHT22;28754;47.700;7.924;2022-12-31T07:47:26;11.20;99.90
42615;DHT22;28754;47.700;7.924;2022-12-31T07:50:22;11.30;99.90
42615;DHT22;28754;47.700;7.924;2022-12-31T07:53:25;11.40;99.90
42615;DHT22;28754;47.700;7.924;2022-12-31T07:57:16;11.50;99.90
42615;DHT22;28754;47.700;7.924;2022-12-31T08:00:13;11.60;99.90
42615;DHT22;28754;47.700;7.924;2022-12-31T08:14:15;12.00;99.90
42615;DHT22;28754;47.700;7.924;2022-12-31T08:17:18;12.10;99.90
42615;DHT22;28754;47.700;7.924;2022-12-31T08:20:15;12.20;99.90
42615;DHT22;28754;47.700;7.924;2022-12-31T08:30:11;13.40;99.90
42615;DHT22;28754;47.700;7.924;2022-12-31T08:37:41;19.20;99.90
42615;DHT22;28754;47.700;7.924;2022-12-31T08:45:13;20.30;99.90
42615;DHT22;28754;47.700;7.924;2022-12-31T09:07:13;28.90;99.90
42615;DHT22;28754;47.700;7.924;2022-12-31T09:20:34;31.30;99.90
42615;DHT22;28754;47.700;7.924;2022-12-31T09:23:28;31.30;99.90
42615;DHT22;28754;47.700;7.924;2022-12-31T09:26:56;31.00;99.90
42615;DHT22;28754;47.700;7.924;2022-12-31T09:30:12;32.00;99.90
42615;DHT22;28754;47.700;7.924;2022-12-31T09:33:46;32.80;99.90
42615;DHT22;28754;47.700;7.924;2022-12-31T09:41:41;33.40;99.90
42615;DHT22;28754;47.700;7.924;2022-12-31T09:58:09;33.40;99.90
42615;DHT22;28754;47.700;7.924;2022-12-31T10:01:51;31.40;99.90
42615;DHT22;28754;47.700;7.924;2022-12-31T10:22:10;29.50;99.90
42615;DHT22;28754;47.700;7.924;2022-12-31T10:36:30;29.10;99.90
42615;DHT22;28754;47.700;7.924;2022-12-31T10:43:34;29.40;99.90
42615;DHT22;28754;47.700;7.924;2022-12-31T10:50:23;28.80;99.90
42615;DHT22;28754;47.700;7.924;2022-12-31T11:00:28;30.20;99.90
42615;DHT22;28754;47.700;7.924;2022-12-31T11:20:23;31.10;99.90
42615;DHT22;28754;47.700;7.924;2022-12-31T11:30:18;31.60;99.90
42615;DHT22;28754;47.700;7.924;2022-12-31T11:33:38;31.20;99.90
42615;DHT22;28754;47.700;7.924;2022-12-31T11:44:15;26.20;99.90
42615;DHT22;28754;47.700;7.924;2022-12-31T11:57:11;23.90;99.90
42615;DHT22;28754;47.700;7.924;2022-12-31T12:00:15;23.60;99.90
42615;DHT22;28754;47.700;7.924;2022-12-31T12:03:10;23.50;99.90
42615;DHT22;28754;47.700;7.924;2022-12-31T12:05:58;22.60;99.90
42615;DHT22;28754;47.700;7.924;2022-12-31T12:08:45;22.40;99.90
42615;DHT22;28754;47.700;7.924;2022-12-31T12:11:39;22.40;99.90
42615;DHT22;28754;47.700;7.924;2022-12-31T12:14:38;22.20;99.90
42615;DHT22;28754;47.700;7.924;2022-12-31T12:17:28;21.80;99.90
42615;DHT22;28754;47.700;7.924;2022-12-31T12:20:31;21.60;99.90
42615;DHT22;28754;47.700;7.924;2022-12-31T12:23:23;21.80;99.90
42615;DHT22;28754;47.700;7.924;2022-12-31T12:26:46;21.70;99.90
42615;DHT22;28754;47.700;7.924;2022-12-31T12:29:38;21.20;99.90
42615;DHT22;28754;47.700;7.924;2022-12-31T12:32:26;21.30;99.90
42615;DHT22;28754;47.700;7.924;2022-12-31T12:35:18;21.20;99.90
42615;DHT22;28754;47.700;7.924;2022-12-31T12:38:30;20.90;99.90
42615;DHT22;28754;47.700;7.924;2022-12-31T12:41:42;20.70;99.90
42615;DHT22;28754;47.700;7.924;2022-12-31T12:44:31;20.40;99.90
42615;DHT22;28754;47.700;7.924;2022-12-31T12:47:21;20.00;99.90
42615;DHT22;28754;47.700;7.924;2022-12-31T12:50:20;18.80;99.90
42615;DHT22;28754;47.700;7.924;2022-12-31T12:53:30;18.40;99.90
42615;DHT22;28754;47.700;7.924;2022-12-31T13:09:42;19.00;99.90
42615;DHT22;28754;47.700;7.924;2022-12-31T13:16:31;18.80;99.90
42615;DHT22;28754;47.700;7.924;2022-12-31T13:23:52;18.00;99.90
42615;DHT22;28754;47.700;7.924;2022-12-31T13:27:47;17.90;99.90
42615;DHT22;28754;47.700;7.924;2022-12-31T13:34:28;17.90;99.90
42615;DHT22;28754;47.700;7.924;2022-12-31T13:38:44;17.70;99.90
42615;DHT22;28754;47.700;7.924;2022-12-31T13:50:30;17.50;99.90
42615;DHT22;28754;47.700;7.924;2022-12-31T13:53:56;17.40;99.90
42615;DHT22;28754;47.700;7.924;2022-12-31T13:56:53;17.20;99.90
42615;DHT22;28754;47.700;7.924;2022-12-31T13:59:48;17.10;99.90
42615;DHT22;28754;47.700;7.924;2022-12-31T14:09:40;16.80;99.90
42615;DHT22;28754;47.700;7.924;2022-12-31T14:16:48;16.30;99.90
42615;DHT22;28754;47.700;7.924;2022-12-31T14:20:17;16.20;99.90
42615;DHT22;28754;47.700;7.924;2022-12-31T14:26:27;16.10;99.90
42615;DHT22;28754;47.700;7.924;2022-12-31T14:51:47;15.60;99.90
42615;DHT22;28754;47.700;7.924;2022-12-31T15:03:24;15.40;99.90
42615;DHT22;28754;47.700;7.924;2022-12-31T15:07:15;15.20;99.90
42615;DHT22;28754;47.700;7.924;2022-12-31T15:20:52;14.70;99.90
42615;DHT22;28754;47.700;7.924;2022-12-31T15:24:08;14.70;99.90
42615;DHT22;28754;47.700;7.924;2022-12-31T15:27:04;14.70;99.90
42615;DHT22;28754;47.700;7.924;2022-12-31T15:38:36;14.40;99.90
42615;DHT22;28754;47.700;7.924;2022-12-31T15:47:01;14.30;99.90
42615;DHT22;28754;47.700;7.924;2022-12-31T16:03:29;13.80;99.90
42615;DHT22;28754;47.700;7.924;2022-12-31T16:06:17;13.80;99.90
42615;DHT22;28754;47.700;7.924;2022-12-31T16:09:14;13.70;99.90
42615;DHT22;28754;47.700;7.924;2022-12-31T16:12:27;13.60;99.90
42615;DHT22;28754;47.700;7.924;2022-12-31T16:15:30;13.60;99.90
42615;DHT22;28754;47.700;7.924;2022-12-31T16:18:22;13.50;99.90
42615;DHT22;28754;47.700;7.924;2022-12-31T16:21:35;13.40;99.90
42615;DHT22;28754;47.700;7.924;2022-12-31T16:24:31;13.40;99.90
42615;DHT22;28754;47.700;7.924;2022-12-31T16:27:28;13.40;99.90
42615;DHT22;28754;47.700;7.924;2022-12-31T16:30:26;13.30;99.90
42615;DHT22;28754;47.700;7.924;2022-12-31T16:33:24;13.20;99.90
42615;DHT22;28754;47.700;7.924;2022-12-31T16:36:21;13.10;99.90
42615;DHT22;28754;47.700;7.924;2022-12-31T16:48:47;13.10;99.90
42615;DHT22;28754;47.700;7.924;2022-12-31T16:51:39;13.10;99.90
42615;DHT22;28754;47.700;7.924;2022-12-31T16:54:31;13.20;99.90
42615;DHT22;28754;47.700;7.924;2022-12-31T16:57:27;13.20;99.90
42615;DHT22;28754;47.700;7.924;2022-12-31T17:00:20;13.20;99.90
42615;DHT22;28754;47.700;7.924;2022-12-31T17:03:23;13.20;99.90
42615;DHT22;28754;47.700;7.924;2022-12-31T17:06:24;13.20;99.90
42615;DHT22;28754;47.700;7.924;2022-12-31T17:09:30;13.20;99.90
42615;DHT22;28754;47.700;7.924;2022-12-31T17:12:27;13.30;99.90
42615;DHT22;28754;47.700;7.924;2022-12-31T17:15:26;13.30;99.90
42615;DHT22;28754;47.700;7.924;2022-12-31T17:18:45;13.20;99.90
42615;DHT22;28754;47.700;7.924;2022-12-31T17:21:47;13.20;99.90
42615;DHT22;28754;47.700;7.924;2022-12-31T17:24:37;13.20;99.90
42615;DHT22;28754;47.700;7.924;2022-12-31T17:27:24;13.20;99.90
42615;DHT22;28754;47.700;7.924;2022-12-31T17:30:35;13.20;99.90
42615;DHT22;28754;47.700;7.924;2022-12-31T17:40:41;13.00;99.90
42615;DHT22;28754;47.700;7.924;2022-12-31T17:43:33;13.00;99.90
42615;DHT22;28754;47.700;7.924;2022-12-31T17:46:30;13.00;99.90
42615;DHT22;28754;47.700;7.924;2022-12-31T17:50:29;12.90;99.90
42615;DHT22;28754;47.700;7.924;2022-12-31T17:57:16;12.90;99.90
42615;DHT22;28754;47.700;7.924;2022-12-31T18:00:21;13.10;99.90
42615;DHT22;28754;47.700;7.924;2022-12-31T18:03:09;13.10;99.90
42615;DHT22;28754;47.700;7.924;2022-12-31T18:05:59;13.10;99.90
42615;DHT22;28754;47.700;7.924;2022-12-31T18:08:46;13.20;99.90
42615;DHT22;28754;47.700;7.924;2022-12-31T18:11:34;13.20;99.90
42615;DHT22;28754;47.700;7.924;2022-12-31T18:14:25;13.20;99.90
42615;DHT22;28754;47.700;7.924;2022-12-31T18:21:55;13.10;99.90
42615;DHT22;28754;47.700;7.924;2022-12-31T18:24:52;13.00;99.90
42615;DHT22;28754;47.700;7.924;2022-12-31T18:28:47;13.00;99.90
42615;DHT22;28754;47.700;7.924;2022-12-31T18:32:28;13.00;99.90
42615;DHT22;28754;47.700;7.924;2022-12-31T18:35:19;13.00;99.90
42615;DHT22;28754;47.700;7.924;2022-12-31T18:41:55;12.90;99.90
42615;DHT22;28754;47.700;7.924;2022-12-31T18:56:17;12.80;99.90
42615;DHT22;28754;47.700;7.924;2022-12-31T18:59:18;12.80;99.90
42615;DHT22;28754;47.700;7.924;2022-12-31T19:02:15;12.70;99.90
42615;DHT22;28754;47.700;7.924;2022-12-31T19:05:23;12.50;99.90
42615;DHT22;28754;47.700;7.924;2022-12-31T19:08:25;12.50;99.90
42615;DHT22;28754;47.700;7.924;2022-12-31T19:11:22;12.40;99.90
42615;DHT22;28754;47.700;7.924;2022-12-31T19:14:15;12.40;99.90
42615;DHT22;28754;47.700;7.924;2022-12-31T19:17:05;12.40;99.90
42615;DHT22;28754;47.700;7.924;2022-12-31T19:19:52;12.40;99.90
42615;DHT22;28754;47.700;7.924;2022-12-31T19:22:56;12.50;99.90
42615;DHT22;28754;47.700;7.924;2022-12-31T19:25:48;12.40;99.90
42615;DHT22;28754;47.700;7.924;2022-12-31T19:28:35;12.40;99.90
42615;DHT22;28754;47.700;7.924;2022-12-31T19:31:22;12.40;99.90
42615;DHT22;28754;47.700;7.924;2022-12-31T19:34:09;12.40;99.90
42615;DHT22;28754;47.700;7.924;2022-12-31T19:36:56;12.40;99.90
42615;DHT22;28754;47.700;7.924;2022-12-31T19:39:43;12.30;99.90
42615;DHT22;28754;47.700;7.924;2022-12-31T19:42:30;12.30;99.90
42615;DHT22;28754;47.700;7.924;2022-12-31T19:45:19;12.20;99.90
42615;DHT22;28754;47.700;7.924;2022-12-31T19:48:12;12.20;99.90
42615;DHT22;28754;47.700;7.924;2022-12-31T19:51:00;12.10;99.90
42615;DHT22;28754;47.700;7.924;2022-12-31T19:53:48;12.30;99.90
42615;DHT22;28754;47.700;7.924;2022-12-31T19:56:35;12.30;99.90
42615;DHT22;28754;47.700;7.924;2022-12-31T19:59:25;12.30;99.90
42615;DHT22;28754;47.700;7.924;2022-12-31T20:02:12;12.20;99.90
42615;DHT22;28754;47.700;7.924;2022-12-31T20:04:59;12.30;99.90
42615;DHT22;28754;47.700;7.924;2022-12-31T20:07:45;12.20;99.90
42615;DHT22;28754;47.700;7.924;2022-12-31T20:10:32;12.10;99.90
42615;DHT22;28754;47.700;7.924;2022-12-31T20:13:19;12.00;99.90
42615;DHT22;28754;47.700;7.924;2022-12-31T20:16:07;11.90;99.90
42615;DHT22;28754;47.700;7.924;2022-12-31T20:18:55;11.90;99.90
42615;DHT22;28754;47.700;7.924;2022-12-31T20:21:42;11.80;99.90
42615;DHT22;28754;47.700;7.924;2022-12-31T20:24:30;11.80;99.90
42615;DHT22;28754;47.700;7.924;2022-12-31T20:27:17;11.80;99.90
42615;DHT22;28754;47.700;7.924;2022-12-31T20:30:04;11.90;99.90
42615;DHT22;28754;47.700;7.924;2022-12-31T20:33:02;11.80;99.90
42615;DHT22;28754;47.700;7.924;2022-12-31T20:36:10;12.00;99.90
42615;DHT22;28754;47.700;7.924;2022-12-31T20:39:28;12.00;99.90
42615;DHT22;28754;47.700;7.924;2022-12-31T20:59:41;12.60;99.90
42615;DHT22;28754;47.700;7.924;2022-12-31T21:02:28;12.70;99.90
42615;DHT22;28754;47.700;7.924;2022-12-31T21:05:15;12.70;99.90
42615;DHT22;28754;47.700;7.924;2022-12-31T21:08:07;12.80;99.90
42615;DHT22;28754;47.700;7.924;2022-12-31T21:11:43;12.80;99.90
42615;DHT22;28754;47.700;7.924;2022-12-31T21:15:15;12.90;99.90
42615;DHT22;28754;47.700;7.924;2022-12-31T21:18:32;12.80;99.90
42615;DHT22;28754;47.700;7.924;2022-12-31T21:21:24;12.70;99.90
42615;DHT22;28754;47.700;7.924;2022-12-31T21:24:19;12.70;99.90
42615;DHT22;28754;47.700;7.924;2022-12-31T21:27:06;12.80;99.90
42615;DHT22;28754;47.700;7.924;2022-12-31T21:29:52;12.80;99.90
42615;DHT22;28754;47.700;7.924;2022-12-31T21:32:39;12.80;99.90
42615;DHT22;28754;47.700;7.924;2022-12-31T21:35:26;12.70;99.90
42615;DHT22;28754;47.700;7.924;2022-12-31T21:38:12;12.80;99.90
42615;DHT22;28754;47.700;7.924;2022-12-31T21:41:03;12.70;99.90
42615;DHT22;28754;47.700;7.924;2022-12-31T21:44:24;12.80;99.90
42615;DHT22;28754;47.700;7.924;2022-12-31T21:47:44;12.90;99.90
42615;DHT22;28754;47.700;7.924;2022-12-31T21:50:52;12.90;99.90
42615;DHT22;28754;47.700;7.924;2022-12-31T21:53:40;12.90;99.90
42615;DHT22;28754;47.700;7.924;2022-12-31T21:56:29;12.80;99.90
42615;DHT22;28754;47.700;7.924;2022-12-31T21:59:16;12.70;99.90
42615;DHT22;28754;47.700;7.924;2022-12-31T22:02:21;12.60;99.90
42615;DHT22;28754;47.700;7.924;2022-12-31T22:05:26;12.50;99.90
42615;DHT22;28754;47.700;7.924;2022-12-31T22:08:19;12.40;99.90
42615;DHT22;28754;47.700;7.924;2022-12-31T22:11:11;12.30;99.90
42615;DHT22;28754;47.700;7.924;2022-12-31T22:14:02;12.30;99.90
42615;DHT22;28754;47.700;7.924;2022-12-31T22:16:51;12.20;99.90
42615;DHT22;28754;47.700;7.924;2022-12-31T22:19:38;12.20;99.90
42615;DHT22;28754;47.700;7.924;2022-12-31T22:22:24;12.10;99.90
42615;DHT22;28754;47.700;7.924;2022-12-31T22:25:14;12.00;99.90
42615;DHT22;28754;47.700;7.924;2022-12-31T22:28:02;11.90;99.90
42615;DHT22;28754;47.700;7.924;2022-12-31T22:30:50;12.00;99.90
42615;DHT22;28754;47.700;7.924;2022-12-31T22:33:37;12.00;99.90
42615;DHT22;28754;47.700;7.924;2022-12-31T22:36:33;11.90;99.90
42615;DHT22;28754;47.700;7.924;2022-12-31T22:39:28;11.90;99.90
42615;DHT22;28754;47.700;7.924;2022-12-31T22:42:23;11.80;99.90
42615;DHT22;28754;47.700;7.924;2022-12-31T22:45:14;11.80;99.90
42615;DHT22;28754;47.700;7.924;2022-12-31T22:48:06;11.80;99.90
42615;DHT22;28754;47.700;7.924;2022-12-31T22:50:56;11.80;99.90
42615;DHT22;28754;47.700;7.924;2022-12-31T22:53:43;11.80;99.90
42615;DHT22;28754;47.700;7.924;2022-12-31T22:56:36;11.80;99.90
42615;DHT22;28754;47.700;7.924;2022-12-31T22:59:23;11.70;99.90
42615;DHT22;28754;47.700;7.924;2022-12-31T23:02:10;11.80;99.90
42615;DHT22;28754;47.700;7.924;2022-12-31T23:04:59;11.70;99.90
42615;DHT22;28754;47.700;7.924;2022-12-31T23:11:39;11.50;99.90
42615;DHT22;28754;47.700;7.924;2022-12-31T23:14:29;11.40;99.90
42615;DHT22;28754;47.700;7.924;2022-12-31T23:17:34;11.40;99.90
42615;DHT22;28754;47.700;7.924;2022-12-31T23:20:41;11.40;99.90
42615;DHT22;28754;47.700;7.924;2022-12-31T23:23:46;11.40;99.90
42615;DHT22;28754;47.700;7.924;2022-12-31T23:26:38;11.40;99.90
42615;DHT22;28754;47.700;7.924;2022-12-31T23:29:25;11.40;99.90
42615;DHT22;28754;47.700;7.924;2022-12-31T23:32:12;11.40;99.90
42615;DHT22;28754;47.700;7.924;2022-12-31T23:35:00;11.40;99.90
42615;DHT22;28754;47.700;7.924;2022-12-31T23:37:47;11.40;99.90
42615;DHT22;28754;47.700;7.924;2022-12-31T23:40:34;11.30;99.90
42615;DHT22;28754;47.700;7.924;2022-12-31T23:43:23;11.30;99.90
42615;DHT22;28754;47.700;7.924;2022-12-31T23:46:13;11.30;99.90
42615;DHT22;28754;47.700;7.924;2022-12-31T23:49:01;11.40;99.90
42615;DHT22;28754;47.700;7.924;2022-12-31T23:51:48;11.30;99.90
42615;DHT22;28754;47.700;7.924;2022-12-31T23:54:35;11.30;99.90
42615;DHT22;28754;47.700;7.924;2022-12-31T23:57:24;11.40;99.90
